createdAt,value
2023-04-21T00:00:30.474Z,10.40
2023-04-21T00:03:20.253Z,10.30
2023-04-21T00:05:48.726Z,10.40
2023-04-21T00:08:16.653Z,10.30
2023-04-21T00:10:44.832Z,10.30
2023-04-21T00:13:12.292Z,10.40
2023-04-21T00:15:40.178Z,10.30
2023-04-21T00:18:07.565Z,10.30
2023-04-21T00:20:35.459Z,10.40
2023-04-21T00:23:03.713Z,10.40
2023-04-21T00:25:31.254Z,10.30
2023-04-21T00:27:58.523Z,10.20
2023-04-21T00:30:26.256Z,10.10
2023-04-21T00:32:53.517Z,10.20
2023-04-21T00:35:23.180Z,10.10
2023-04-21T00:37:50.399Z,10.10
2023-04-21T00:40:17.953Z,10.00
2023-04-21T00:42:45.219Z,10.10
2023-04-21T00:45:14.804Z,10.10
2023-04-21T00:47:42.878Z,10.00
2023-04-21T00:50:12.636Z,10.00
2023-04-21T00:52:41.157Z,10.00
2023-04-21T00:55:09.351Z,9.90
2023-04-21T00:57:38.015Z,9.90
2023-04-21T01:00:06.505Z,9.90
2023-04-21T01:02:36.344Z,9.90
2023-04-21T01:05:09.080Z,9.90
2023-04-21T01:07:39.164Z,9.80
2023-04-21T01:10:07.588Z,9.80
2023-04-21T01:12:43.623Z,9.70
2023-04-21T01:15:12.768Z,9.80
2023-04-21T01:17:40.525Z,9.70
2023-04-21T01:20:10.795Z,9.80
2023-04-21T01:22:39.598Z,9.70
2023-04-21T01:25:07.600Z,9.60
2023-04-21T01:27:36.907Z,9.70
2023-04-21T01:30:06.201Z,9.60
2023-04-21T01:32:33.686Z,9.60
2023-04-21T01:35:01.840Z,9.50
2023-04-21T01:37:33.984Z,9.50
2023-04-21T01:40:05.426Z,9.40
2023-04-21T01:42:35.467Z,9.40
2023-04-21T01:45:03.776Z,9.40
2023-04-21T01:47:32.301Z,9.30
2023-04-21T01:49:59.855Z,9.40
2023-04-21T01:52:27.127Z,9.30
2023-04-21T01:54:55.207Z,9.30
2023-04-21T01:57:22.518Z,9.30
2023-04-21T01:59:51.738Z,9.30
2023-04-21T02:02:19.052Z,9.30
2023-04-21T02:04:46.664Z,9.20
2023-04-21T02:07:13.971Z,9.10
2023-04-21T02:09:42.780Z,9.10
2023-04-21T02:12:10.467Z,9.10
2023-04-21T02:14:38.835Z,9.10
2023-04-21T02:17:08.054Z,9.00
2023-04-21T02:19:36.084Z,9.00
2023-04-21T02:22:04.117Z,9.00
2023-04-21T02:24:31.606Z,9.00
2023-04-21T02:26:58.933Z,9.00
2023-04-21T02:29:29.215Z,9.00
2023-04-21T02:32:05.283Z,9.00
2023-04-21T02:34:42.206Z,9.00
2023-04-21T02:37:11.427Z,9.00
2023-04-21T02:39:38.963Z,9.00
2023-04-21T02:42:06.248Z,8.90
2023-04-21T02:44:33.679Z,8.90
2023-04-21T02:47:01.087Z,8.90
2023-04-21T02:49:28.585Z,8.80
2023-04-21T02:51:58.592Z,8.80
2023-04-21T02:54:26.118Z,8.90
2023-04-21T02:56:53.341Z,8.80
2023-04-21T02:59:20.999Z,8.80
2023-04-21T03:01:49.397Z,8.80
2023-04-21T03:04:17.405Z,8.80
2023-04-21T03:06:44.964Z,8.80
2023-04-21T03:09:13.217Z,8.70
2023-04-21T03:11:40.504Z,8.70
2023-04-21T03:14:07.975Z,8.60
2023-04-21T03:16:35.296Z,8.60
2023-04-21T03:19:02.772Z,8.60
2023-04-21T03:21:30.129Z,8.50
2023-04-21T03:23:57.656Z,8.50
2023-04-21T03:26:25.217Z,8.50
2023-04-21T03:28:52.832Z,8.40
2023-04-21T03:31:20.168Z,8.40
2023-04-21T03:33:47.609Z,8.40
2023-04-21T03:36:16.073Z,8.40
2023-04-21T03:38:43.654Z,8.40
2023-04-21T03:41:10.937Z,8.40
2023-04-21T03:43:38.639Z,8.30
2023-04-21T03:46:07.575Z,8.30
2023-04-21T03:48:35.128Z,8.30
2023-04-21T03:51:02.298Z,8.40
2023-04-21T03:53:30.170Z,8.30
2023-04-21T03:55:57.451Z,8.40
2023-04-21T03:58:24.987Z,8.40
2023-04-21T04:00:52.357Z,8.40
2023-04-21T04:03:22.772Z,8.50
2023-04-21T04:05:50.738Z,8.50
2023-04-21T04:08:18.509Z,8.50
2023-04-21T04:10:45.891Z,8.50
2023-04-21T04:13:13.407Z,8.60
2023-04-21T04:15:40.866Z,8.60
2023-04-21T04:18:08.412Z,8.70
2023-04-21T04:20:36.635Z,8.70
2023-04-21T04:23:04.521Z,8.80
2023-04-21T04:25:31.846Z,8.90
2023-04-21T04:27:59.775Z,8.90
2023-04-21T04:30:30.205Z,9.00
2023-04-21T04:32:58.098Z,9.10
2023-04-21T04:35:25.454Z,9.10
2023-04-21T04:37:54.787Z,9.10
2023-04-21T04:40:22.538Z,9.20
2023-04-21T04:42:51.533Z,9.20
2023-04-21T04:45:21.401Z,9.30
2023-04-21T04:47:50.117Z,9.30
2023-04-21T04:50:17.772Z,9.40
2023-04-21T04:52:47.126Z,9.40
2023-04-21T04:55:14.549Z,9.50
2023-04-21T04:57:42.038Z,9.60
2023-04-21T05:00:11.510Z,9.60
2023-04-21T05:02:39.402Z,9.70
2023-04-21T05:05:08.171Z,9.70
2023-04-21T05:07:36.016Z,9.80
2023-04-21T05:10:04.627Z,9.80
2023-04-21T05:12:32.622Z,9.90
2023-04-21T05:15:00.003Z,9.90
2023-04-21T05:17:28.740Z,10.00
2023-04-21T05:19:56.375Z,10.10
2023-04-21T05:22:24.029Z,10.20
2023-04-21T05:24:51.413Z,10.30
2023-04-21T05:27:18.987Z,10.40
2023-04-21T05:29:46.389Z,10.50
2023-04-21T05:32:14.436Z,10.50
2023-04-21T05:34:41.692Z,10.60
2023-04-21T05:37:11.744Z,10.60
2023-04-21T05:39:38.984Z,10.80
2023-04-21T05:42:09.398Z,10.90
2023-04-21T05:44:37.120Z,10.90
2023-04-21T05:47:06.352Z,11.00
2023-04-21T05:49:33.967Z,11.10
2023-04-21T05:52:01.414Z,11.10
2023-04-21T05:54:28.593Z,11.30
2023-04-21T05:56:56.981Z,11.30
2023-04-21T05:59:26.413Z,11.40
2023-04-21T06:01:54.585Z,11.50
2023-04-21T06:04:32.904Z,11.50
2023-04-21T06:07:10.465Z,11.50
2023-04-21T06:09:38.326Z,11.60
2023-04-21T06:12:06.358Z,11.60
2023-04-21T06:14:33.544Z,11.70
2023-04-21T06:17:01.125Z,11.60
2023-04-21T06:19:28.406Z,11.70
2023-04-21T06:21:57.487Z,11.70
2023-04-21T06:24:25.673Z,11.70
2023-04-21T06:26:53.581Z,11.80
2023-04-21T06:29:21.032Z,11.90
2023-04-21T06:31:48.771Z,12.00
2023-04-21T06:34:16.234Z,12.10
2023-04-21T06:36:43.967Z,12.10
2023-04-21T06:39:11.536Z,12.20
2023-04-21T06:41:38.950Z,12.10
2023-04-21T06:44:06.287Z,12.30
2023-04-21T06:46:33.803Z,12.30
2023-04-21T06:49:01.229Z,12.40
2023-04-21T06:51:28.737Z,12.50
2023-04-21T06:53:55.988Z,12.60
2023-04-21T06:56:23.452Z,12.60
2023-04-21T06:58:51.149Z,12.80
2023-04-21T07:01:18.723Z,12.80
2023-04-21T07:03:46.604Z,12.90
2023-04-21T07:06:14.229Z,13.00
2023-04-21T07:08:41.656Z,13.00
2023-04-21T07:11:09.248Z,13.00
2023-04-21T07:13:36.446Z,13.10
2023-04-21T07:16:08.089Z,13.20
2023-04-21T07:18:35.458Z,13.20
2023-04-21T07:21:03.072Z,13.40
2023-04-21T07:23:30.636Z,13.50
2023-04-21T07:25:59.065Z,13.60
2023-04-21T07:28:26.703Z,13.60
2023-04-21T07:30:54.427Z,13.70
2023-04-21T07:33:21.659Z,13.70
2023-04-21T07:35:49.539Z,14.00
2023-04-21T07:38:18.045Z,13.90
2023-04-21T07:40:45.525Z,14.10
2023-04-21T15:00:47.187Z,14.40
2023-04-21T15:05:42.662Z,28.40
2023-04-21T15:38:01.390Z,30.50
2023-04-21T15:40:29.652Z,30.10
2023-04-21T15:42:56.856Z,30.10
2023-04-21T15:47:52.111Z,30.90
2023-04-21T15:50:19.751Z,29.30
2023-04-21T15:55:15.637Z,30.00
2023-04-21T15:57:42.938Z,30.30
2023-04-21T16:00:11.254Z,30.50
2023-04-21T16:02:39.418Z,29.90
2023-04-21T16:12:31.470Z,28.50
2023-04-21T16:15:09.353Z,29.30
2023-04-21T16:35:09.985Z,26.90
2023-04-21T16:37:40.459Z,21.00
2023-04-21T16:40:09.414Z,20.40
2023-04-21T16:42:37.479Z,20.30
2023-04-21T16:45:06.796Z,20.20
2023-04-21T16:47:41.067Z,20.50
2023-04-21T16:50:10.655Z,19.90
2023-04-21T16:52:38.407Z,19.10
2023-04-21T16:55:06.654Z,19.30
2023-04-21T16:57:35.145Z,18.70
2023-04-21T17:00:07.243Z,18.80
2023-04-21T17:02:35.549Z,18.70
2023-04-21T17:05:04.213Z,18.40
2023-04-21T17:07:32.118Z,18.40
2023-04-21T17:09:59.816Z,18.50
2023-04-21T17:12:27.951Z,18.60
2023-04-21T17:14:57.901Z,18.20
2023-04-21T17:17:26.304Z,18.00
2023-04-21T17:19:54.524Z,17.90
2023-04-21T17:22:21.875Z,17.90
2023-04-21T17:24:53.852Z,17.80
2023-04-21T17:27:21.748Z,17.60
2023-04-21T17:29:49.375Z,17.10
2023-04-21T17:32:17.245Z,16.60
2023-04-21T17:34:45.678Z,16.40
2023-04-21T17:37:13.900Z,16.20
2023-04-21T17:39:42.378Z,16.00
2023-04-21T17:42:10.621Z,15.90
2023-04-21T17:44:41.246Z,15.80
2023-04-21T17:47:09.730Z,15.60
2023-04-21T17:49:37.846Z,15.50
2023-04-21T17:52:06.592Z,15.40
2023-04-21T17:54:35.433Z,15.30
2023-04-21T17:57:03.885Z,15.20
2023-04-21T17:59:32.103Z,15.10
2023-04-21T18:02:00.742Z,15.00
2023-04-21T18:04:30.929Z,14.90
2023-04-21T18:06:59.206Z,14.80
2023-04-21T18:09:27.214Z,14.70
2023-04-21T18:11:54.690Z,14.60
2023-04-21T18:14:23.138Z,14.50
2023-04-21T18:16:50.715Z,14.40
2023-04-21T18:19:18.608Z,14.20
2023-04-21T18:21:46.464Z,14.20
2023-04-21T18:24:14.731Z,14.00
2023-04-21T18:26:42.584Z,13.90
2023-04-21T18:29:11.130Z,13.80
2023-04-21T18:31:39.362Z,13.70
2023-04-21T18:34:08.855Z,13.60
2023-04-21T18:36:38.380Z,13.60
2023-04-21T18:39:06.501Z,13.50
2023-04-21T18:41:33.792Z,13.40
2023-04-21T18:44:01.559Z,13.40
2023-04-21T18:46:29.374Z,13.30
2023-04-21T18:48:57.392Z,13.20
2023-04-21T18:51:25.275Z,13.20
2023-04-21T18:53:52.784Z,13.10
2023-04-21T18:56:20.121Z,13.00
2023-04-21T18:58:47.617Z,12.90
2023-04-21T19:01:14.957Z,12.90
2023-04-21T19:03:42.926Z,12.80
2023-04-21T19:06:10.720Z,12.80
2023-04-21T19:08:42.540Z,12.70
2023-04-21T19:11:11.643Z,12.70
2023-04-21T19:13:39.533Z,12.60
2023-04-21T19:16:12.438Z,12.60
2023-04-21T19:18:40.499Z,12.50
2023-04-21T19:21:12.697Z,12.40
2023-04-21T19:23:41.668Z,12.40
2023-04-21T19:26:09.769Z,12.30
2023-04-21T19:28:38.354Z,12.30
2023-04-21T19:31:05.746Z,12.20
2023-04-21T19:33:35.623Z,12.10
2023-04-21T19:36:03.479Z,12.10
2023-04-21T19:38:31.174Z,12.00
2023-04-21T19:40:58.445Z,12.00
2023-04-21T19:43:26.175Z,11.90
2023-04-21T19:45:53.963Z,11.90
2023-04-21T19:48:21.832Z,11.80
2023-04-21T19:50:49.390Z,11.70
2023-04-21T19:53:17.254Z,11.70
2023-04-21T19:55:46.404Z,11.60
2023-04-21T19:58:22.082Z,11.60
2023-04-21T20:00:55.845Z,11.60
2023-04-21T20:03:24.031Z,11.50
2023-04-21T20:05:52.078Z,11.50
2023-04-21T20:08:19.812Z,11.40
2023-04-21T20:10:47.087Z,11.30
2023-04-21T20:13:14.669Z,11.20
2023-04-21T20:15:42.677Z,11.20
2023-04-21T20:18:11.845Z,11.10
2023-04-21T20:20:40.687Z,11.00
2023-04-21T20:23:08.190Z,11.00
2023-04-21T20:25:35.734Z,10.90
2023-04-21T20:28:03.402Z,10.90
2023-04-21T20:30:30.665Z,10.80
2023-04-21T20:32:58.364Z,10.70
2023-04-21T20:35:26.407Z,10.70
2023-04-21T20:37:53.975Z,10.60
2023-04-21T20:40:21.717Z,10.60
2023-04-21T20:42:49.392Z,10.50
2023-04-21T20:45:17.411Z,10.50
2023-04-21T20:47:45.021Z,10.50
2023-04-21T20:50:12.702Z,10.40
2023-04-21T20:52:40.519Z,10.40
2023-04-21T20:55:08.092Z,10.30
2023-04-21T20:57:35.762Z,10.30
2023-04-21T21:00:05.911Z,10.30
2023-04-21T21:02:34.236Z,10.20
2023-04-21T21:05:01.702Z,10.10
2023-04-21T21:07:30.857Z,10.10
2023-04-21T21:09:58.163Z,10.00
2023-04-21T21:12:26.001Z,10.00
2023-04-21T21:14:53.977Z,10.00
2023-04-21T21:17:21.800Z,9.90
2023-04-21T21:19:49.509Z,9.90
2023-04-21T21:22:17.420Z,9.80
2023-04-21T21:24:46.536Z,9.80
2023-04-21T21:27:14.297Z,9.80
2023-04-21T21:29:41.746Z,9.80
2023-04-21T21:32:09.326Z,9.80
2023-04-21T21:34:37.054Z,9.70
2023-04-21T21:37:05.139Z,9.70
2023-04-21T21:39:32.651Z,9.70
2023-04-21T21:42:00.790Z,9.70
2023-04-21T21:44:27.982Z,9.60
2023-04-21T21:46:55.843Z,9.60
2023-04-21T21:49:23.114Z,9.50
2023-04-21T21:51:50.826Z,9.50
2023-04-21T21:54:18.217Z,9.50
2023-04-21T21:56:45.676Z,9.40
2023-04-21T21:59:12.962Z,9.40
2023-04-21T22:01:41.308Z,9.30
2023-04-21T22:04:08.688Z,9.20
2023-04-21T22:06:37.229Z,9.20
2023-04-21T22:09:05.128Z,9.20
2023-04-21T22:11:32.697Z,9.10
2023-04-21T22:14:07.988Z,9.10
2023-04-21T22:16:42.926Z,9.10
2023-04-21T22:19:10.564Z,9.10
2023-04-21T22:21:38.213Z,9.10
2023-04-21T22:24:05.783Z,9.00
2023-04-21T22:26:33.916Z,8.90
2023-04-21T22:29:01.160Z,8.90
2023-04-21T22:31:28.940Z,8.90
2023-04-21T22:33:56.671Z,8.90
2023-04-21T22:36:24.280Z,8.80
2023-04-21T22:38:52.326Z,8.80
2023-04-21T22:41:20.968Z,8.80
2023-04-21T22:43:48.619Z,8.70
2023-04-21T22:46:16.143Z,8.70
2023-04-21T22:48:46.366Z,8.70
2023-04-21T22:51:21.047Z,8.60
2023-04-21T22:53:48.365Z,8.60
2023-04-21T22:57:06.212Z,8.60
2023-04-21T22:59:33.518Z,8.50
2023-04-21T23:02:01.075Z,8.50
2023-04-21T23:04:28.290Z,8.50
2023-04-21T23:06:56.235Z,8.40
2023-04-21T23:09:23.726Z,8.40
2023-04-21T23:11:51.399Z,8.30
2023-04-21T23:14:18.855Z,8.30
2023-04-21T23:16:46.342Z,8.30
2023-04-21T23:19:13.576Z,8.30
2023-04-21T23:21:41.101Z,8.20
2023-04-21T23:24:08.314Z,8.20
2023-04-21T23:26:35.824Z,8.20
2023-04-21T23:29:03.214Z,8.20
2023-04-21T23:31:31.707Z,8.10
2023-04-21T23:34:00.179Z,8.10
2023-04-21T23:36:27.786Z,8.10
2023-04-21T23:38:55.011Z,8.00
2023-04-21T23:41:24.797Z,7.90
2023-04-21T23:43:51.988Z,8.00
2023-04-21T23:46:19.457Z,7.90
2023-04-21T23:48:46.585Z,7.90
2023-04-21T23:51:14.113Z,7.80
2023-04-21T23:53:41.315Z,7.80
2023-04-21T23:56:08.774Z,7.80
2023-04-21T23:58:36.771Z,7.80
